createdAt,value
2018-08-22T00:00:05.952Z,100670.91
2018-08-22T00:02:33.706Z,100676.52
2018-08-22T00:05:02.047Z,100671.33
2018-08-22T00:07:31.955Z,100676.22
2018-08-22T00:09:59.912Z,100679.35
2018-08-22T00:12:27.714Z,100678.53
2018-08-22T00:14:55.577Z,100679.14
2018-08-22T00:17:23.602Z,100672.82
2018-08-22T00:19:51.470Z,100674.56
2018-08-22T00:22:19.372Z,100672.34
2018-08-22T00:24:47.902Z,100676.05
2018-08-22T00:27:15.658Z,100670.18
2018-08-22T00:29:43.487Z,100664.42
2018-08-22T00:32:11.322Z,100660.20
2018-08-22T00:34:43.059Z,100659.95
2018-08-22T00:37:10.895Z,100666.12
2018-08-22T00:39:38.797Z,100661.75
2018-08-22T00:42:06.595Z,100664.36
2018-08-22T00:44:34.342Z,100657.97
2018-08-22T00:47:02.087Z,100656.84
2018-08-22T00:49:29.898Z,100651.30
2018-08-22T00:51:57.767Z,100658.32
2018-08-22T00:54:25.591Z,100659.14
2018-08-22T00:56:56.259Z,100653.59
2018-08-22T00:59:24.047Z,100654.23
2018-08-22T01:01:51.783Z,100657.02
2018-08-22T01:04:19.591Z,100648.30
2018-08-22T01:06:47.362Z,100657.50
2018-08-22T01:09:15.134Z,100653.12
2018-08-22T01:11:42.970Z,100652.41
2018-08-22T01:14:10.899Z,100647.77
2018-08-22T01:16:42.103Z,100651.36
2018-08-22T01:19:09.924Z,100651.14
2018-08-22T01:21:37.714Z,100651.17
2018-08-22T01:24:05.515Z,100648.66
2018-08-22T01:26:33.327Z,100651.47
2018-08-22T01:29:01.096Z,100645.10
2018-08-22T01:31:28.933Z,100647.61
2018-08-22T01:33:56.687Z,100650.91
2018-08-22T01:36:24.478Z,100649.40
2018-08-22T01:38:52.431Z,100640.78
2018-08-22T01:41:20.255Z,100645.80
2018-08-22T01:43:48.040Z,100645.30
2018-08-22T01:46:15.819Z,100643.36
2018-08-22T01:48:43.651Z,100645.04
2018-08-22T01:51:11.394Z,100644.18
2018-08-22T01:53:39.219Z,100645.92
2018-08-22T01:56:07.022Z,100644.27
2018-08-22T01:58:34.872Z,100638.77
2018-08-22T02:01:02.675Z,100645.98
2018-08-22T02:03:30.572Z,100645.72
2018-08-22T02:05:58.353Z,100641.30
2018-08-22T02:08:26.151Z,100635.48
2018-08-22T02:10:53.999Z,100641.61
2018-08-22T02:13:21.807Z,100641.38
2018-08-22T02:15:49.598Z,100637.52
2018-08-22T02:18:17.333Z,100636.95
2018-08-22T02:20:45.115Z,100638.36
2018-08-22T02:23:12.959Z,100635.56
2018-08-22T02:25:40.766Z,100630.08
2018-08-22T02:28:08.556Z,100631.16
2018-08-22T02:30:36.299Z,100634.27
2018-08-22T02:33:04.187Z,100629.52
2018-08-22T02:35:31.979Z,100636.18
2018-08-22T02:37:59.708Z,100631.52
2018-08-22T02:40:27.485Z,100629.06
2018-08-22T02:42:55.394Z,100631.84
2018-08-22T02:45:23.151Z,100628.81
2018-08-22T02:47:50.900Z,100640.40
2018-08-22T02:50:18.688Z,100631.03
2018-08-22T02:52:46.515Z,100632.98
2018-08-22T02:55:14.309Z,100637.44
2018-08-22T02:57:42.034Z,100638.83
2018-08-22T03:00:09.747Z,100637.45
2018-08-22T03:02:37.595Z,100635.23
2018-08-22T03:05:05.558Z,100634.98
2018-08-22T03:07:33.321Z,100641.66
2018-08-22T03:10:01.167Z,100636.13
2018-08-22T03:12:28.915Z,100640.27
2018-08-22T03:14:56.726Z,100632.81
2018-08-22T03:17:24.552Z,100644.45
2018-08-22T03:19:52.315Z,100641.66
2018-08-22T03:22:20.044Z,100636.42
2018-08-22T03:24:47.863Z,100635.31
2018-08-22T03:27:15.651Z,100631.98
2018-08-22T03:29:43.507Z,100644.70
2018-08-22T03:32:11.326Z,100635.58
2018-08-22T03:34:39.088Z,100629.77
2018-08-22T03:37:06.875Z,100638.61
2018-08-22T03:39:34.763Z,100637.80
2018-08-22T03:42:02.567Z,100635.84
2018-08-22T03:44:31.231Z,100639.19
2018-08-22T03:46:59.080Z,100638.92
2018-08-22T03:49:26.891Z,100636.69
2018-08-22T03:51:54.724Z,100636.42
2018-08-22T03:54:22.501Z,100637.52
2018-08-22T03:56:50.325Z,100631.73
2018-08-22T03:59:18.107Z,100637.26
2018-08-22T04:01:45.891Z,100635.31
2018-08-22T04:04:13.654Z,100640.60
2018-08-22T04:06:41.487Z,100638.64
2018-08-22T04:09:09.215Z,100635.63
2018-08-22T04:11:37.047Z,100637.01
2018-08-22T04:14:04.935Z,100635.63
2018-08-22T04:16:32.747Z,100631.22
2018-08-22T04:19:00.567Z,100634.02
2018-08-22T04:21:28.411Z,100636.75
2018-08-22T04:23:56.319Z,100639.27
2018-08-22T04:26:24.125Z,100634.57
2018-08-22T04:28:52.068Z,100640.11
2018-08-22T04:31:19.885Z,100637.89
2018-08-22T04:33:47.720Z,100640.91
2018-08-22T04:36:15.523Z,100636.51
2018-08-22T04:38:43.272Z,100635.38
2018-08-22T04:41:11.134Z,100637.88
2018-08-22T04:43:42.362Z,100639.55
2018-08-22T04:46:10.203Z,100642.87
2018-08-22T04:48:43.399Z,100639.84
2018-08-22T04:51:11.295Z,100637.88
2018-08-22T04:53:39.100Z,100642.86
2018-08-22T04:56:07.528Z,100639.84
2018-08-22T04:58:35.343Z,100647.83
2018-08-22T05:01:03.205Z,100643.67
2018-08-22T05:03:31.055Z,100644.50
2018-08-22T05:05:58.892Z,100646.44
2018-08-22T05:08:26.848Z,100648.91
2018-08-22T05:10:54.701Z,100648.91
2018-08-22T05:13:22.439Z,100650.83
2018-08-22T05:15:50.280Z,100651.11
2018-08-22T05:18:18.453Z,100648.86
2018-08-22T05:20:46.280Z,100652.19
2018-08-22T05:23:15.569Z,100647.47
2018-08-22T05:25:55.997Z,100654.37
2018-08-22T05:28:24.195Z,100653.53
2018-08-22T05:30:52.011Z,100653.23
2018-08-22T05:33:19.835Z,100657.91
2018-08-22T05:35:47.605Z,100654.26
2018-08-22T05:38:15.443Z,100644.83
2018-08-22T05:40:43.955Z,100656.12
2018-08-22T05:43:11.721Z,100656.34
2018-08-22T05:45:39.480Z,100654.59
2018-08-22T05:48:07.235Z,100654.00
2018-08-22T05:50:35.028Z,100656.69
2018-08-22T05:53:03.264Z,100650.45
2018-08-22T05:55:31.391Z,100649.79
2018-08-22T05:57:59.275Z,100654.36
2018-08-22T06:00:27.108Z,100654.94
2018-08-22T06:02:54.872Z,100650.54
2018-08-22T06:05:22.719Z,100650.30
2018-08-22T06:07:50.795Z,100646.19
2018-08-22T06:10:18.755Z,100644.31
2018-08-22T06:12:46.489Z,100647.19
2018-08-22T06:15:14.261Z,100642.02
2018-08-22T06:17:42.080Z,100639.15
2018-08-22T06:20:09.825Z,100635.61
2018-08-22T06:22:37.607Z,100639.39
2018-08-22T06:25:05.379Z,100637.11
2018-08-22T06:27:33.184Z,100634.61
2018-08-22T06:30:00.948Z,100633.81
2018-08-22T06:32:28.720Z,100633.83
2018-08-22T06:34:56.563Z,100635.67
2018-08-22T06:37:24.359Z,100631.72
2018-08-22T06:39:52.203Z,100631.92
2018-08-22T06:42:20.031Z,100637.34
2018-08-22T06:44:48.017Z,100629.48
2018-08-22T06:47:15.811Z,100629.22
2018-08-22T06:49:43.589Z,100629.42
2018-08-22T06:52:11.448Z,100633.13
2018-08-22T06:54:39.305Z,100631.97
2018-08-22T06:57:07.233Z,100634.28
2018-08-22T06:59:34.915Z,100634.75
2018-08-22T07:02:02.679Z,100636.72
2018-08-22T07:04:30.474Z,100626.34
2018-08-22T07:06:58.287Z,100629.11
2018-08-22T07:09:26.083Z,100624.48
2018-08-22T07:11:53.868Z,100623.41
2018-08-22T07:14:21.645Z,100623.27
2018-08-22T07:16:49.436Z,100617.13
2018-08-22T07:19:17.179Z,100616.55
2018-08-22T07:21:44.980Z,100615.05
2018-08-22T07:24:12.771Z,100615.12
2018-08-22T07:26:40.470Z,100609.83
2018-08-22T07:29:08.224Z,100609.27
2018-08-22T07:31:36.066Z,100615.67
2018-08-22T07:34:03.916Z,100614.03
2018-08-22T07:36:31.680Z,100608.41
2018-08-22T07:38:59.456Z,100611.20
2018-08-22T07:41:27.293Z,100611.34
2018-08-22T07:43:55.143Z,100611.54
2018-08-22T07:46:22.936Z,100609.87
2018-08-22T07:48:50.679Z,100610.83
2018-08-22T07:51:18.537Z,100621.51
2018-08-22T07:53:46.301Z,100620.63
2018-08-22T07:56:14.148Z,100623.15
2018-08-22T07:58:42.003Z,100621.20
2018-08-22T08:01:09.849Z,100616.42
2018-08-22T08:03:37.658Z,100613.16
2018-08-22T08:06:05.655Z,100617.45
2018-08-22T08:08:33.474Z,100617.55
2018-08-22T08:11:01.394Z,100612.30
2018-08-22T08:13:29.639Z,100614.84
2018-08-22T08:15:58.120Z,100612.14
2018-08-22T08:18:25.916Z,100612.90
2018-08-22T08:20:53.700Z,100611.20
2018-08-22T08:23:21.495Z,100610.86
2018-08-22T08:25:49.292Z,100608.05
2018-08-22T08:28:17.014Z,100602.93
2018-08-22T08:30:44.841Z,100607.55
2018-08-22T08:33:12.662Z,100602.84
2018-08-22T08:35:40.468Z,100602.00
2018-08-22T08:38:08.404Z,100599.02
2018-08-22T08:40:36.227Z,100592.33
2018-08-22T08:43:04.073Z,100598.17
2018-08-22T08:45:31.866Z,100594.20
2018-08-22T08:47:59.693Z,100596.31
2018-08-22T08:50:27.483Z,100592.22
2018-08-22T08:52:55.341Z,100590.30
2018-08-22T08:55:23.188Z,100587.33
2018-08-22T08:57:51.020Z,100586.41
2018-08-22T09:00:18.797Z,100586.41
2018-08-22T09:02:46.608Z,100581.45
2018-08-22T09:05:14.485Z,100579.67
2018-08-22T09:07:42.237Z,100574.64
2018-08-22T09:10:10.032Z,100576.44
2018-08-22T09:12:37.995Z,100572.70
2018-08-22T09:15:06.634Z,100571.34
2018-08-22T09:17:34.409Z,100569.86
2018-08-22T09:20:02.300Z,100572.97
2018-08-22T09:22:30.058Z,100568.73
2018-08-22T09:24:57.887Z,100562.80
2018-08-22T09:27:25.633Z,100557.25
2018-08-22T09:29:53.490Z,100557.80
2018-08-22T09:32:21.172Z,100547.69
2018-08-22T09:34:48.955Z,100551.02
2018-08-22T09:37:16.772Z,100542.64
2018-08-22T09:39:44.645Z,100543.59
2018-08-22T09:42:12.319Z,100544.22
2018-08-22T09:44:40.104Z,100544.29
2018-08-22T09:47:07.903Z,100535.03
2018-08-22T09:49:35.712Z,100540.31
2018-08-22T09:52:03.540Z,100538.17
2018-08-22T09:54:31.959Z,100538.63
2018-08-22T09:56:59.856Z,100532.94
2018-08-22T09:59:27.635Z,100533.62
2018-08-22T10:01:55.592Z,100533.56
2018-08-22T10:04:24.085Z,100528.37
2018-08-22T10:06:52.053Z,100522.30
2018-08-22T10:09:20.951Z,100519.70
2018-08-22T10:11:48.793Z,100514.30
2018-08-22T10:14:16.505Z,100507.36
2018-08-22T10:16:44.252Z,100513.17
2018-08-22T10:19:12.083Z,100506.42
2018-08-22T10:21:39.776Z,100505.12
2018-08-22T10:24:07.580Z,100504.33
2018-08-22T10:26:35.403Z,100499.88
2018-08-22T10:29:03.143Z,100492.56
2018-08-22T10:31:30.955Z,100489.69
2018-08-22T10:33:58.728Z,100486.82
2018-08-22T10:36:26.512Z,100480.52
2018-08-22T10:38:54.275Z,100476.75
2018-08-22T10:41:22.012Z,100471.70
2018-08-22T10:43:49.879Z,100471.67
2018-08-22T10:46:17.604Z,100471.20
2018-08-22T10:48:45.396Z,100466.39
2018-08-22T10:51:13.237Z,100465.20
2018-08-22T10:53:41.022Z,100455.14
2018-08-22T10:56:08.812Z,100454.06
2018-08-22T10:58:36.643Z,100455.84
2018-08-22T11:01:04.452Z,100451.38
2018-08-22T11:03:32.204Z,100446.22
2018-08-22T11:06:00.057Z,100442.71
2018-08-22T11:08:27.787Z,100436.44
2018-08-22T11:10:55.647Z,100434.39
2018-08-22T11:13:23.438Z,100439.02
2018-08-22T11:15:51.354Z,100435.07
2018-08-22T11:18:19.036Z,100433.31
2018-08-22T11:20:48.567Z,100424.16
2018-08-22T11:23:34.161Z,100419.96
2018-08-22T11:26:19.387Z,100413.46
2018-08-22T11:29:04.464Z,100414.50
2018-08-22T11:31:49.500Z,100415.32
2018-08-22T11:34:34.571Z,100414.02
2018-08-22T11:37:04.784Z,100409.80
2018-08-22T11:39:32.639Z,100410.13
2018-08-22T11:42:00.680Z,100403.51
2018-08-22T11:44:28.895Z,100403.73
2018-08-22T11:46:56.687Z,100409.45
2018-08-22T11:49:24.472Z,100391.43
2018-08-22T11:51:52.235Z,100396.89
2018-08-22T11:54:20.140Z,100395.11
2018-08-22T11:56:47.964Z,100391.52
2018-08-22T11:59:15.831Z,100388.03
2018-08-22T12:01:43.683Z,100384.22
2018-08-22T12:04:11.434Z,100389.56
2018-08-22T12:06:39.416Z,100391.46
2018-08-22T12:09:09.136Z,100384.42
2018-08-22T12:11:36.896Z,100382.92
2018-08-22T12:14:04.743Z,100374.73
2018-08-22T12:16:32.573Z,100378.51
2018-08-22T12:19:00.525Z,100377.52
2018-08-22T12:21:28.369Z,100368.46
2018-08-22T12:23:56.100Z,100361.47
2018-08-22T12:26:23.889Z,100356.44
2018-08-22T12:28:51.672Z,100358.42
2018-08-22T12:31:19.500Z,100355.00
2018-08-22T12:33:47.205Z,100346.04
2018-08-22T12:36:15.055Z,100352.25
2018-08-22T12:38:42.936Z,100344.69
2018-08-22T12:41:10.792Z,100337.77
2018-08-22T12:43:38.612Z,100343.88
2018-08-22T12:46:06.420Z,100335.70
2018-08-22T12:48:34.255Z,100339.94
2018-08-22T12:51:02.123Z,100324.23
2018-08-22T12:53:29.964Z,100330.60
2018-08-22T12:55:57.737Z,100320.61
2018-08-22T12:58:25.670Z,100320.91
2018-08-22T13:00:53.451Z,100318.98
2018-08-22T13:03:21.381Z,100315.77
2018-08-22T13:05:49.185Z,100317.66
2018-08-22T13:08:17.084Z,100314.63
2018-08-22T13:10:44.877Z,100315.28
2018-08-22T13:13:12.658Z,100314.00
2018-08-22T13:15:40.460Z,100311.00
2018-08-22T13:18:08.231Z,100310.64
2018-08-22T13:20:36.000Z,100305.99
2018-08-22T13:23:03.995Z,100300.50
2018-08-22T13:25:31.868Z,100291.48
2018-08-22T13:27:59.699Z,100293.89
2018-08-22T13:30:27.592Z,100288.88
2018-08-22T13:32:55.364Z,100293.26
2018-08-22T13:35:23.142Z,100292.07
2018-08-22T13:37:50.908Z,100282.02
2018-08-22T13:40:18.731Z,100290.23
2018-08-22T13:42:46.464Z,100284.82
2018-08-22T13:45:14.283Z,100290.03
2018-08-22T13:47:42.149Z,100278.25
2018-08-22T13:50:09.916Z,100280.36
2018-08-22T13:52:37.723Z,100277.45
2018-08-22T13:55:05.780Z,100273.63
2018-08-22T13:57:33.590Z,100277.26
2018-08-22T14:00:01.390Z,100279.90
2018-08-22T14:02:29.163Z,100283.38
2018-08-22T14:04:56.932Z,100287.33
2018-08-22T14:07:24.767Z,100282.62
2018-08-22T14:09:52.527Z,100277.55
2018-08-22T14:12:20.296Z,100286.28
2018-08-22T14:14:48.082Z,100280.02
2018-08-22T14:17:15.854Z,100265.72
2018-08-22T14:19:43.668Z,100261.00
2018-08-22T14:22:11.383Z,100261.27
2018-08-22T14:24:39.198Z,100257.61
2018-08-22T14:27:06.956Z,100266.36
2018-08-22T14:29:34.671Z,100262.93
2018-08-22T14:32:02.523Z,100261.11
2018-08-22T14:34:30.268Z,100256.84
2018-08-22T14:36:58.072Z,100254.01
2018-08-22T14:39:26.063Z,100255.83
2018-08-22T14:41:53.735Z,100248.53
2018-08-22T14:44:21.571Z,100247.13
2018-08-22T14:46:49.361Z,100245.71
2018-08-22T14:49:17.176Z,100242.88
2018-08-22T14:51:44.895Z,100242.48
2018-08-22T14:54:12.732Z,100235.56
2018-08-22T14:56:40.459Z,100240.84
2018-08-22T14:59:08.327Z,100234.38
2018-08-22T15:01:36.197Z,100228.69
2018-08-22T15:04:04.077Z,100231.14
2018-08-22T15:06:31.828Z,100236.20
2018-08-22T15:09:05.411Z,100232.55
2018-08-22T15:11:34.857Z,100229.30
2018-08-22T15:14:03.121Z,100230.11
2018-08-22T15:16:31.301Z,100230.90
2018-08-22T15:18:59.168Z,100232.12
2018-08-22T15:21:26.961Z,100232.55
2018-08-22T15:23:54.976Z,100225.87
2018-08-22T15:26:23.619Z,100229.06
2018-08-22T15:28:57.595Z,100227.48
2018-08-22T15:31:25.395Z,100218.72
2018-08-22T15:33:53.138Z,100223.16
2018-08-22T15:36:21.327Z,100219.33
2018-08-22T15:38:49.199Z,100211.59
2018-08-22T15:41:17.316Z,100212.42
2018-08-22T15:43:45.148Z,100206.14
2018-08-22T15:46:13.008Z,100204.12
2018-08-22T15:48:40.812Z,100202.88
2018-08-22T15:51:08.704Z,100202.86
2018-08-22T15:53:36.503Z,100200.05
2018-08-22T15:56:04.367Z,100206.53
2018-08-22T15:58:32.204Z,100203.03
2018-08-22T16:00:59.973Z,100197.20
2018-08-22T16:03:27.769Z,100187.84
2018-08-22T16:05:56.319Z,100190.28
2018-08-22T16:08:25.430Z,100195.33
2018-08-22T16:10:54.385Z,100192.09
2018-08-22T16:13:29.359Z,100188.81
2018-08-22T16:15:59.359Z,100193.02
2018-08-22T16:18:27.251Z,100182.48
2018-08-22T16:20:56.166Z,100176.59
2018-08-22T16:23:31.737Z,100182.48
2018-08-22T16:26:01.180Z,100178.64
2018-08-22T16:28:47.839Z,100184.72
2018-08-22T16:31:15.955Z,100172.95
2018-08-22T16:33:43.702Z,100172.31
2018-08-22T16:36:18.695Z,100171.69
2018-08-22T16:38:46.559Z,100175.28
2018-08-22T16:41:15.952Z,100170.22
2018-08-22T16:43:44.543Z,100182.56
2018-08-22T16:46:14.228Z,100179.53
2018-08-22T16:48:43.231Z,100178.05
2018-08-22T16:51:11.032Z,100173.56
2018-08-22T16:53:38.769Z,100172.52
2018-08-22T16:56:06.720Z,100170.29
2018-08-22T16:58:34.537Z,100172.86
2018-08-22T17:01:02.336Z,100170.42
2018-08-22T17:03:30.175Z,100171.84
2018-08-22T17:06:05.410Z,100174.03
2018-08-22T17:08:35.047Z,100171.96
2018-08-22T17:11:11.274Z,100167.67
2018-08-22T17:13:49.432Z,100167.39
2018-08-22T17:16:17.291Z,100169.17
2018-08-22T17:18:45.100Z,100179.84
2018-08-22T17:21:12.935Z,100178.83
2018-08-22T17:23:41.111Z,100177.72
2018-08-22T17:26:12.959Z,100179.53
2018-08-22T17:28:44.455Z,100185.55
2018-08-22T17:31:12.887Z,100182.30
2018-08-22T17:33:55.344Z,100180.38
2018-08-22T17:36:29.271Z,100183.16
2018-08-22T17:39:05.278Z,100181.44
2018-08-22T17:41:33.668Z,100180.17
2018-08-22T17:44:11.889Z,100179.27
2018-08-22T17:46:47.664Z,100176.84
2018-08-22T17:49:15.684Z,100178.58
2018-08-22T17:52:04.276Z,100180.69
2018-08-22T17:54:33.409Z,100181.03
2018-08-22T17:57:20.414Z,100175.30
2018-08-22T17:59:48.301Z,100173.30
2018-08-22T18:02:16.187Z,100178.85
2018-08-22T18:07:23.237Z,100175.93
2018-08-22T18:09:51.237Z,100185.05
2018-08-22T18:12:22.128Z,100180.08
2018-08-22T18:14:49.910Z,100181.04
2018-08-22T18:17:19.264Z,100177.58
2018-08-22T18:19:47.754Z,100186.14
2018-08-22T18:22:15.911Z,100182.19
2018-08-22T18:24:56.262Z,100181.16
2018-08-22T18:27:24.646Z,100180.83
2018-08-22T18:29:52.319Z,100186.09
2018-08-22T18:32:20.119Z,100194.30
2018-08-22T18:35:06.152Z,100194.06
2018-08-22T18:37:34.339Z,100195.71
2018-08-22T18:40:23.363Z,100198.62
2018-08-22T18:42:56.119Z,100197.29
2018-08-22T18:45:33.246Z,100199.56
2018-08-22T18:48:03.025Z,100198.50
2018-08-22T18:50:31.081Z,100200.35
2018-08-22T18:53:00.296Z,100198.84
2018-08-22T18:55:33.138Z,100209.64
2018-08-22T18:58:03.869Z,100209.92
2018-08-22T19:00:36.567Z,100208.45
2018-08-22T19:03:05.240Z,100207.61
2018-08-22T19:05:35.713Z,100210.64
2018-08-22T19:08:15.137Z,100214.88
2018-08-22T19:10:45.220Z,100215.02
2018-08-22T19:13:16.005Z,100216.23
2018-08-22T19:15:53.509Z,100213.13
2018-08-22T19:18:26.177Z,100215.95
2018-08-22T19:20:57.126Z,100214.70
2018-08-22T19:23:25.010Z,100216.50
2018-08-22T19:25:55.919Z,100212.23
2018-08-22T19:28:23.775Z,100215.16
2018-08-22T19:30:54.596Z,100217.32
2018-08-22T19:33:27.146Z,100211.80
2018-08-22T19:36:02.852Z,100222.34
2018-08-22T19:38:32.214Z,100219.15
2018-08-22T19:41:18.868Z,100219.22
2018-08-22T19:43:46.700Z,100224.06
2018-08-22T19:46:14.589Z,100219.48
2018-08-22T19:48:42.343Z,100222.56
2018-08-22T19:51:10.790Z,100220.67
2018-08-22T19:53:57.556Z,100225.73
2018-08-22T19:56:26.299Z,100223.33
2018-08-22T19:58:54.767Z,100222.61
2018-08-22T20:01:22.575Z,100224.40
2018-08-22T20:03:55.742Z,100226.89
2018-08-22T20:06:25.522Z,100229.11
2018-08-22T20:08:55.820Z,100230.48
2018-08-22T20:11:23.937Z,100227.09
2018-08-22T20:14:00.839Z,100230.02
2018-08-22T20:16:30.555Z,100230.61
2018-08-22T20:18:59.619Z,100228.35
2018-08-22T20:21:34.147Z,100226.13
2018-08-22T20:24:03.383Z,100228.77
2018-08-22T20:26:33.856Z,100229.06
2018-08-22T20:29:03.671Z,100231.82
2018-08-22T20:31:34.793Z,100241.13
2018-08-22T20:34:07.388Z,100233.95
2018-08-22T20:36:39.775Z,100240.31
2018-08-22T20:39:11.235Z,100238.39
2018-08-22T20:41:40.584Z,100245.59
2018-08-22T20:44:18.133Z,100245.24
2018-08-22T20:46:47.339Z,100248.83
2018-08-22T20:49:18.634Z,100243.23
2018-08-22T20:51:46.764Z,100241.53
2018-08-22T20:54:22.462Z,100237.02
2018-08-22T20:56:56.585Z,100240.32
2018-08-22T20:59:24.543Z,100239.42
2018-08-22T21:02:01.815Z,100238.34
2018-08-22T21:04:32.715Z,100237.56
2018-08-22T21:07:06.505Z,100235.40
2018-08-22T21:09:38.042Z,100238.95
2018-08-22T21:12:05.827Z,100238.95
2018-08-22T21:14:33.646Z,100239.06
2018-08-22T21:17:05.300Z,100240.17
2018-08-22T21:19:33.155Z,100244.90
2018-08-22T21:22:01.077Z,100245.56
2018-08-22T21:24:28.878Z,100243.78
2018-08-22T21:27:02.932Z,100245.98
2018-08-22T21:29:34.066Z,100242.05
2018-08-22T21:32:01.993Z,100242.92
2018-08-22T21:34:31.723Z,100238.12
2018-08-22T21:37:02.172Z,100242.83
2018-08-22T21:39:37.059Z,100240.75
2018-08-22T21:42:05.371Z,100241.66
2018-08-22T21:44:33.267Z,100240.33
2018-08-22T21:47:06.785Z,100235.84
2018-08-22T21:49:34.555Z,100234.81
2018-08-22T21:52:02.409Z,100241.53
2018-08-22T21:54:32.743Z,100244.12
2018-08-22T21:57:03.765Z,100250.35
2018-08-22T21:59:31.687Z,100249.77
2018-08-22T22:02:06.234Z,100250.61
2018-08-22T22:04:38.436Z,100249.14
2018-08-22T22:07:09.304Z,100244.30
2018-08-22T22:09:40.401Z,100249.65
2018-08-22T22:12:17.182Z,100250.07
2018-08-22T22:14:46.244Z,100247.92
2018-08-22T22:17:14.049Z,100247.12
2018-08-22T22:19:41.888Z,100247.20
2018-08-22T22:22:09.729Z,100247.11
2018-08-22T22:24:56.101Z,100246.95
2018-08-22T22:27:24.461Z,100248.01
2018-08-22T22:30:01.714Z,100254.81
2018-08-22T22:32:29.947Z,100253.28
2018-08-22T22:34:57.824Z,100257.66
2018-08-22T22:37:25.711Z,100250.75
2018-08-22T22:39:53.455Z,100247.87
2018-08-22T22:42:25.106Z,100247.11
2018-08-22T22:44:54.816Z,100252.56
2018-08-22T22:47:28.575Z,100253.05
2018-08-22T22:50:00.075Z,100260.66
2018-08-22T22:52:35.232Z,100257.61
2018-08-22T22:55:07.673Z,100258.58
2018-08-22T22:57:36.912Z,100257.03
2018-08-22T23:00:07.824Z,100256.92
2018-08-22T23:02:35.647Z,100253.44
2018-08-22T23:05:03.552Z,100251.50
2018-08-22T23:07:35.167Z,100258.66
2018-08-22T23:10:08.321Z,100253.55
2018-08-22T23:12:38.016Z,100256.33
2018-08-22T23:15:09.308Z,100250.98
2018-08-22T23:17:37.280Z,100248.11
2018-08-22T23:20:46.027Z,100242.38
2018-08-22T23:23:27.355Z,100254.80
2018-08-22T23:25:57.757Z,100250.25
2018-08-22T23:28:25.577Z,100245.63
2018-08-22T23:30:53.414Z,100246.24
2018-08-22T23:33:21.720Z,100248.53
2018-08-22T23:35:50.103Z,100251.16
2018-08-22T23:38:26.464Z,100246.53
2018-08-22T23:40:54.263Z,100244.69
2018-08-22T23:43:22.271Z,100243.73
2018-08-22T23:45:54.338Z,100243.54
2018-08-22T23:48:27.796Z,100244.37
2018-08-22T23:50:59.739Z,100242.69
2018-08-22T23:53:30.180Z,100248.59
2018-08-22T23:56:16.159Z,100239.61
2018-08-22T23:58:44.942Z,100238.22
